createdAt,value
2018-05-11T00:02:19.559Z,19.10
2018-05-11T00:04:46.968Z,16.30
2018-05-11T00:07:14.391Z,19.33
2018-05-11T00:09:41.816Z,17.77
2018-05-11T00:12:09.244Z,16.23
2018-05-11T00:14:36.656Z,16.77
2018-05-11T00:17:04.093Z,17.73
2018-05-11T00:19:31.491Z,17.40
2018-05-11T00:21:58.938Z,17.33
2018-05-11T00:24:26.341Z,15.97
2018-05-11T00:26:53.760Z,15.37
2018-05-11T00:29:21.169Z,19.60
2018-05-11T00:31:48.576Z,25.07
2018-05-11T00:34:16.000Z,16.03
2018-05-11T00:36:43.427Z,17.33
2018-05-11T00:39:10.861Z,18.43
2018-05-11T00:41:38.278Z,15.27
2018-05-11T00:44:05.708Z,18.87
2018-05-11T00:46:33.121Z,17.47
2018-05-11T00:49:00.544Z,18.80
2018-05-11T00:51:27.969Z,21.00
2018-05-11T00:53:55.392Z,18.30
2018-05-11T00:56:22.808Z,15.53
2018-05-11T00:58:50.224Z,17.10
2018-05-11T01:01:17.656Z,19.57
2018-05-11T01:03:45.067Z,17.27
2018-05-11T01:06:12.472Z,18.67
2018-05-11T01:08:39.892Z,20.57
2018-05-11T01:11:07.304Z,21.37
2018-05-11T01:13:34.736Z,22.13
2018-05-11T01:16:02.147Z,19.93
2018-05-11T01:18:29.557Z,19.90
2018-05-11T01:20:57.601Z,18.13
2018-05-11T01:23:25.012Z,18.13
2018-05-11T01:25:52.426Z,22.17
2018-05-11T01:28:19.853Z,24.67
2018-05-11T01:30:47.260Z,17.50
2018-05-11T01:33:14.681Z,16.67
2018-05-11T01:35:42.108Z,18.07
2018-05-11T01:38:09.788Z,23.50
2018-05-11T01:40:37.217Z,21.10
2018-05-11T01:43:04.652Z,19.53
2018-05-11T01:45:32.073Z,22.20
2018-05-11T01:47:59.485Z,18.93
2018-05-11T01:50:26.916Z,18.60
2018-05-11T01:52:54.328Z,18.70
2018-05-11T01:55:21.774Z,20.07
2018-05-11T01:57:49.189Z,18.30
2018-05-11T02:00:16.629Z,20.63
2018-05-11T02:02:44.056Z,15.73
2018-05-11T02:05:11.468Z,20.37
2018-05-11T02:07:38.881Z,21.27
2018-05-11T02:10:06.320Z,17.50
2018-05-11T02:12:33.744Z,22.60
2018-05-11T02:15:01.185Z,18.10
2018-05-11T02:17:28.612Z,19.97
2018-05-11T02:19:56.034Z,18.93
2018-05-11T02:22:23.455Z,17.57
2018-05-11T02:24:51.310Z,23.90
2018-05-11T02:27:18.724Z,21.13
2018-05-11T02:29:46.139Z,20.83
2018-05-11T02:32:13.574Z,20.70
2018-05-11T02:34:40.996Z,24.13
2018-05-11T02:37:08.440Z,23.17
2018-05-11T02:39:35.855Z,24.17
2018-05-11T02:42:03.275Z,22.53
2018-05-11T02:44:30.710Z,24.63
2018-05-11T02:46:58.113Z,26.10
2018-05-11T02:49:25.898Z,28.43
2018-05-11T02:51:53.259Z,24.57
2018-05-11T02:54:20.668Z,23.87
2018-05-11T02:56:48.106Z,28.30
2018-05-11T02:59:15.508Z,25.93
2018-05-11T03:01:42.924Z,30.50
2018-05-11T03:04:10.347Z,28.53
2018-05-11T03:06:37.753Z,28.73
2018-05-11T03:09:05.947Z,28.57
2018-05-11T03:11:33.373Z,27.47
2018-05-11T03:14:00.792Z,29.33
2018-05-11T03:16:28.204Z,33.17
2018-05-11T03:18:55.623Z,28.27
2018-05-11T03:21:23.029Z,25.77
2018-05-11T03:23:50.465Z,27.60
2018-05-11T03:26:17.864Z,28.37
2018-05-11T03:28:45.284Z,31.03
2018-05-11T03:31:12.749Z,29.57
2018-05-11T03:33:40.430Z,31.93
2018-05-11T03:36:07.852Z,32.17
2018-05-11T03:38:35.302Z,29.73
2018-05-11T03:41:03.078Z,25.07
2018-05-11T03:43:30.495Z,27.07
2018-05-11T03:45:57.908Z,26.37
2018-05-11T03:48:25.374Z,28.73
2018-05-11T03:50:52.816Z,34.30
2018-05-11T03:53:20.232Z,28.30
2018-05-11T03:55:47.653Z,28.50
2018-05-11T03:58:15.155Z,30.77
2018-05-11T04:00:42.563Z,29.80
2018-05-11T04:03:21.812Z,29.80
2018-05-11T04:08:46.728Z,29.77
2018-05-11T04:11:14.140Z,27.37
2018-05-11T04:13:41.552Z,30.33
2018-05-11T04:16:08.981Z,28.17
2018-05-11T04:18:36.402Z,30.73
2018-05-11T04:21:03.820Z,27.43
2018-05-11T04:23:31.232Z,29.50
2018-05-11T04:25:59.099Z,31.87
2018-05-11T04:28:26.513Z,31.33
2018-05-11T04:30:53.919Z,29.13
2018-05-11T04:33:21.339Z,30.37
2018-05-11T04:35:49.076Z,29.27
2018-05-11T04:38:16.477Z,26.67
2018-05-11T04:40:43.891Z,27.90
2018-05-11T04:43:11.615Z,28.27
2018-05-11T04:45:39.029Z,27.20
2018-05-11T04:48:06.435Z,24.93
2018-05-11T04:50:33.880Z,29.00
2018-05-11T04:53:01.288Z,27.53
2018-05-11T04:55:28.726Z,26.83
2018-05-11T04:57:56.128Z,24.67
2018-05-11T05:00:23.896Z,28.33
2018-05-11T05:02:51.304Z,26.97
2018-05-11T05:05:18.728Z,27.87
2018-05-11T05:07:46.152Z,26.30
2018-05-11T05:10:13.579Z,27.50
2018-05-11T05:12:40.999Z,25.10
2018-05-11T05:15:08.410Z,24.73
2018-05-11T05:17:35.837Z,27.23
2018-05-11T05:20:03.276Z,27.53
2018-05-11T05:22:30.726Z,28.30
2018-05-11T05:24:58.135Z,27.90
2018-05-11T05:27:25.646Z,26.63
2018-05-11T05:29:53.053Z,25.67
2018-05-11T05:32:20.492Z,26.20
2018-05-11T05:34:48.272Z,23.63
2018-05-11T05:37:15.679Z,23.20
2018-05-11T05:39:43.087Z,25.77
2018-05-11T05:42:10.516Z,24.30
2018-05-11T05:44:37.927Z,25.63
2018-05-11T05:47:05.352Z,23.73
2018-05-11T05:49:32.765Z,24.03
2018-05-11T05:52:00.250Z,24.63
2018-05-11T05:54:27.596Z,21.40
2018-05-11T05:56:55.001Z,24.87
2018-05-11T05:59:22.423Z,27.33
2018-05-11T06:01:49.835Z,23.50
2018-05-11T06:04:17.243Z,25.27
2018-05-11T06:06:44.664Z,22.40
2018-05-11T06:09:12.075Z,22.20
2018-05-11T06:11:39.502Z,20.53
2018-05-11T06:14:06.909Z,21.03
2018-05-11T06:16:34.316Z,22.80
2018-05-11T06:19:01.755Z,21.30
2018-05-11T06:21:29.171Z,21.43
2018-05-11T06:23:56.865Z,22.53
2018-05-11T06:26:24.313Z,20.93
2018-05-11T06:28:51.725Z,22.37
2018-05-11T06:31:19.155Z,20.20
2018-05-11T06:33:46.577Z,20.07
2018-05-11T06:36:14.015Z,21.00
2018-05-11T06:38:41.428Z,22.07
2018-05-11T06:41:08.857Z,20.63
2018-05-11T06:43:36.272Z,19.80
2018-05-11T06:46:03.744Z,21.43
2018-05-11T06:48:31.125Z,19.03
2018-05-11T06:50:58.541Z,20.33
2018-05-11T06:53:26.040Z,18.33
2018-05-11T06:55:53.493Z,21.47
2018-05-11T06:58:20.873Z,19.13
2018-05-11T07:00:48.358Z,18.87
2018-05-11T07:03:15.780Z,19.73
2018-05-11T07:05:43.203Z,22.13
2018-05-11T07:08:10.637Z,18.50
2018-05-11T07:10:38.064Z,17.83
2018-05-11T07:13:05.562Z,19.93
2018-05-11T07:15:32.980Z,18.77
2018-05-11T07:18:00.383Z,23.83
2018-05-11T07:20:27.820Z,19.70
2018-05-11T07:22:55.223Z,21.53
2018-05-11T07:25:22.643Z,19.77
2018-05-11T07:27:50.060Z,23.40
2018-05-11T07:30:17.471Z,18.70
2018-05-11T07:32:44.896Z,22.03
2018-05-11T07:35:12.326Z,20.50
2018-05-11T07:37:39.727Z,21.37
2018-05-11T07:40:07.169Z,20.20
2018-05-11T07:42:34.575Z,20.47
2018-05-11T07:45:01.990Z,19.60
2018-05-11T07:47:29.416Z,17.87
2018-05-11T07:49:56.824Z,20.70
2018-05-11T07:52:24.630Z,19.40
2018-05-11T07:54:52.034Z,21.07
2018-05-11T07:57:19.457Z,19.37
2018-05-11T07:59:47.252Z,19.23
2018-05-11T08:02:14.663Z,19.57
2018-05-11T08:04:42.079Z,22.37
2018-05-11T08:07:09.508Z,16.92
2018-05-11T08:09:36.916Z,19.00
2018-05-11T08:12:04.357Z,18.85
2018-05-11T08:14:31.851Z,14.82
2018-05-11T08:16:59.183Z,16.15
2018-05-11T08:19:26.892Z,13.75
2018-05-11T08:21:54.300Z,16.30
2018-05-11T08:24:21.708Z,18.17
2018-05-11T08:26:49.248Z,15.25
2018-05-11T08:29:16.612Z,13.82
2018-05-11T08:31:44.040Z,14.30
2018-05-11T08:34:11.451Z,15.82
2018-05-11T08:36:38.881Z,13.35
2018-05-11T08:39:06.311Z,16.42
2018-05-11T08:41:33.728Z,16.02
2018-05-11T08:44:01.496Z,16.02
2018-05-11T08:46:28.908Z,13.50
2018-05-11T08:48:56.320Z,13.13
2018-05-11T08:51:23.749Z,17.33
2018-05-11T08:53:51.165Z,15.23
2018-05-11T08:56:18.600Z,14.15
2018-05-11T08:58:46.028Z,13.62
2018-05-11T09:01:13.448Z,13.45
2018-05-11T09:03:40.860Z,14.57
2018-05-11T09:06:08.294Z,13.40
2018-05-11T09:08:35.753Z,14.73
2018-05-11T09:11:03.370Z,13.10
2018-05-11T09:13:30.795Z,13.85
2018-05-11T09:15:58.219Z,14.20
2018-05-11T09:18:25.643Z,17.08
2018-05-11T09:20:53.055Z,14.07
2018-05-11T09:23:20.807Z,15.48
2018-05-11T09:25:48.224Z,16.08
2018-05-11T09:28:15.631Z,14.55
2018-05-11T09:30:43.124Z,15.82
2018-05-11T09:33:10.529Z,17.90
2018-05-11T09:35:37.938Z,15.38
2018-05-11T09:38:05.381Z,16.62
2018-05-11T09:40:33.060Z,17.40
2018-05-11T09:43:00.472Z,14.95
2018-05-11T09:45:28.319Z,16.90
2018-05-11T09:47:55.647Z,17.60
2018-05-11T09:50:23.060Z,16.83
2018-05-11T09:52:50.490Z,14.45
2018-05-11T09:55:17.891Z,15.32
2018-05-11T09:57:45.299Z,18.08
2018-05-11T10:00:12.736Z,17.33
2018-05-11T10:02:40.156Z,19.98
2018-05-11T10:05:07.564Z,15.45
2018-05-11T10:07:34.991Z,14.60
2018-05-11T10:10:02.598Z,15.82
2018-05-11T10:12:30.010Z,15.95
2018-05-11T10:14:57.431Z,16.77
2018-05-11T10:17:24.859Z,16.63
2018-05-11T10:19:52.276Z,17.13
2018-05-11T10:22:20.079Z,16.40
2018-05-11T10:24:47.492Z,15.77
2018-05-11T10:27:14.913Z,16.53
2018-05-11T10:29:42.573Z,17.57
2018-05-11T10:32:10.064Z,18.10
2018-05-11T10:34:37.486Z,16.57
2018-05-11T10:37:04.959Z,16.27
2018-05-11T10:39:32.380Z,14.90
2018-05-11T10:42:00.217Z,14.13
2018-05-11T10:44:27.629Z,15.13
2018-05-11T10:46:55.032Z,14.20
2018-05-11T10:49:22.491Z,17.70
2018-05-11T10:51:49.909Z,15.37
2018-05-11T10:54:17.340Z,18.80
2018-05-11T10:56:44.756Z,18.53
2018-05-11T10:59:12.172Z,15.17
2018-05-11T11:01:39.606Z,16.97
2018-05-11T11:04:07.011Z,16.90
2018-05-11T11:06:34.435Z,16.83
2018-05-11T11:09:01.881Z,16.40
2018-05-11T11:11:29.309Z,17.73
2018-05-11T11:13:56.717Z,15.93
2018-05-11T11:16:24.132Z,18.10
2018-05-11T11:18:51.593Z,15.93
2018-05-11T11:21:19.011Z,13.33
2018-05-11T11:23:46.462Z,16.50
2018-05-11T11:26:13.886Z,15.73
2018-05-11T11:28:41.338Z,16.70
2018-05-11T11:31:08.776Z,18.20
2018-05-11T11:33:36.211Z,15.90
2018-05-11T11:36:03.639Z,16.40
2018-05-11T11:38:31.076Z,18.00
2018-05-11T11:40:58.485Z,18.57
2018-05-11T11:43:25.928Z,17.17
2018-05-11T11:45:53.350Z,17.20
2018-05-11T11:48:20.775Z,15.70
2018-05-11T11:50:48.212Z,15.87
2018-05-11T11:53:15.616Z,16.93
2018-05-11T11:55:43.597Z,14.87
2018-05-11T11:58:10.999Z,17.37
2018-05-11T12:00:38.418Z,20.07
2018-05-11T12:03:05.840Z,15.67
2018-05-11T12:05:33.242Z,15.60
2018-05-11T12:08:01.294Z,15.17
2018-05-11T12:10:28.700Z,13.73
2018-05-11T12:12:56.113Z,16.63
2018-05-11T12:15:23.536Z,15.03
2018-05-11T12:17:50.949Z,13.77
2018-05-11T12:20:18.380Z,14.60
2018-05-11T12:22:45.798Z,14.97
2018-05-11T12:25:13.223Z,16.73
2018-05-11T12:27:40.652Z,19.10
2018-05-11T12:30:08.085Z,13.33
2018-05-11T12:32:35.551Z,14.97
2018-05-11T12:35:02.980Z,12.40
2018-05-11T12:37:30.425Z,14.53
2018-05-11T12:39:57.829Z,14.40
2018-05-11T12:42:25.251Z,15.70
2018-05-11T12:44:52.685Z,15.47
2018-05-11T12:47:20.098Z,12.97
2018-05-11T12:49:47.543Z,14.77
2018-05-11T12:52:14.960Z,16.00
2018-05-11T12:54:42.556Z,14.38
2018-05-11T12:57:09.971Z,14.87
2018-05-11T12:59:37.380Z,16.73
2018-05-11T13:02:04.825Z,15.83
2018-05-11T13:04:32.244Z,16.17
2018-05-11T13:06:59.648Z,11.37
2018-05-11T13:09:27.067Z,15.50
2018-05-11T13:11:54.475Z,13.10
2018-05-11T13:14:21.920Z,12.53
2018-05-11T13:16:49.324Z,10.77
2018-05-11T13:19:16.740Z,9.77
2018-05-11T13:21:44.150Z,9.77
2018-05-11T13:24:11.573Z,14.47
2018-05-11T13:26:38.996Z,10.93
2018-05-11T13:29:06.405Z,11.53
2018-05-11T13:31:33.828Z,11.93
2018-05-11T13:34:01.232Z,14.63
2018-05-11T13:36:28.761Z,14.57
2018-05-11T13:38:56.488Z,16.17
2018-05-11T13:41:23.945Z,14.23
2018-05-11T13:43:51.540Z,14.03
2018-05-11T13:46:18.967Z,16.43
2018-05-11T13:48:46.377Z,13.40
2018-05-11T13:51:13.804Z,13.13
2018-05-11T13:53:41.211Z,11.77
2018-05-11T13:56:08.804Z,13.50
2018-05-11T13:58:36.364Z,12.30
2018-05-11T14:01:03.784Z,10.87
2018-05-11T14:03:31.327Z,10.83
2018-05-11T14:05:58.798Z,9.50
2018-05-11T14:08:26.235Z,11.23
2018-05-11T14:10:53.644Z,10.50
2018-05-11T14:13:21.072Z,13.07
2018-05-11T14:15:48.472Z,11.97
2018-05-11T14:18:15.878Z,10.07
2018-05-11T14:20:43.363Z,9.23
2018-05-11T14:23:10.767Z,8.90
2018-05-11T14:25:38.199Z,8.13
2018-05-11T14:28:05.653Z,9.57
2018-05-11T14:30:33.183Z,9.47
2018-05-11T14:33:01.121Z,11.90
2018-05-11T14:35:28.819Z,10.33
2018-05-11T14:37:56.658Z,10.13
2018-05-11T14:40:25.430Z,8.67
2018-05-11T14:42:52.823Z,8.70
2018-05-11T14:45:20.252Z,7.50
2018-05-11T14:47:47.672Z,9.77
2018-05-11T14:50:15.078Z,11.63
2018-05-11T14:52:42.487Z,7.07
2018-05-11T14:55:09.885Z,8.60
2018-05-11T14:57:37.283Z,8.60
2018-05-11T15:00:04.699Z,8.20
2018-05-11T15:02:32.092Z,9.37
2018-05-11T15:04:59.503Z,7.87
2018-05-11T15:07:26.912Z,8.67
2018-05-11T15:09:54.323Z,7.63
2018-05-11T15:12:21.853Z,8.23
2018-05-11T15:14:49.261Z,8.50
2018-05-11T15:17:16.683Z,7.87
2018-05-11T15:19:44.082Z,7.10
2018-05-11T15:22:11.488Z,7.50
2018-05-11T15:24:38.912Z,7.87
2018-05-11T15:27:06.328Z,8.20
2018-05-11T15:29:33.744Z,8.53
2018-05-11T15:32:01.144Z,7.33
2018-05-11T15:34:28.555Z,7.53
2018-05-11T15:36:55.956Z,9.40
2018-05-11T15:39:23.377Z,8.43
2018-05-11T15:41:50.780Z,6.90
2018-05-11T15:44:18.179Z,9.80
2018-05-11T15:46:45.583Z,6.50
2018-05-11T15:49:13.004Z,7.07
2018-05-11T15:51:40.460Z,6.80
2018-05-11T15:54:07.864Z,7.43
2018-05-11T15:56:35.304Z,7.10
2018-05-11T15:59:02.787Z,10.60
2018-05-11T16:01:30.298Z,7.07
2018-05-11T16:03:57.711Z,8.00
2018-05-11T16:06:25.104Z,8.63
2018-05-11T16:08:52.528Z,7.00
2018-05-11T16:11:19.936Z,8.50
2018-05-11T16:13:47.351Z,7.97
2018-05-11T16:16:14.769Z,8.87
2018-05-11T16:18:42.167Z,8.07
2018-05-11T16:21:09.585Z,9.90
2018-05-11T16:23:36.995Z,8.57
2018-05-11T16:26:04.407Z,6.17
2018-05-11T16:28:31.809Z,7.67
2018-05-11T16:30:59.223Z,9.27
2018-05-11T16:33:26.628Z,10.10
2018-05-11T16:35:54.048Z,6.37
2018-05-11T16:38:21.441Z,9.40
2018-05-11T16:40:48.909Z,7.97
2018-05-11T16:43:16.303Z,7.97
2018-05-11T16:45:43.942Z,6.77
2018-05-11T16:48:11.336Z,7.53
2018-05-11T16:50:38.739Z,8.00
2018-05-11T16:53:06.161Z,7.63
2018-05-11T16:55:33.559Z,8.73
2018-05-11T16:58:00.957Z,8.03
2018-05-11T17:00:28.372Z,6.40
2018-05-11T17:02:55.772Z,7.47
2018-05-11T17:05:23.459Z,7.47
2018-05-11T17:07:50.859Z,8.67
2018-05-11T17:10:18.264Z,7.27
2018-05-11T17:12:45.887Z,8.00
2018-05-11T17:15:13.342Z,11.07
2018-05-11T17:17:41.060Z,10.93
2018-05-11T17:20:08.451Z,7.53
2018-05-11T17:22:35.929Z,9.37
2018-05-11T17:25:03.494Z,9.27
2018-05-11T17:27:30.917Z,7.47
2018-05-11T17:29:58.441Z,7.17
2018-05-11T17:32:25.794Z,10.90
2018-05-11T17:34:53.221Z,9.13
2018-05-11T17:37:20.646Z,7.20
2018-05-11T17:39:48.050Z,7.83
2018-05-11T17:42:15.460Z,7.90
2018-05-11T17:44:42.881Z,7.37
2018-05-11T17:47:10.316Z,6.97
2018-05-11T17:49:37.736Z,9.40
2018-05-11T17:52:05.137Z,6.83
2018-05-11T17:54:32.552Z,8.07
2018-05-11T17:57:00.033Z,12.07
2018-05-11T17:59:27.371Z,9.13
2018-05-11T18:01:57.791Z,7.73
2018-05-11T18:04:25.209Z,7.53
2018-05-11T18:06:52.626Z,7.17
2018-05-11T18:09:20.097Z,6.53
2018-05-11T18:11:48.302Z,8.30
2018-05-11T18:14:15.767Z,8.23
2018-05-11T18:16:44.372Z,5.73
2018-05-11T18:19:11.829Z,7.70
2018-05-11T18:21:39.252Z,5.93
2018-05-11T18:24:07.036Z,9.00
2018-05-11T18:26:34.469Z,6.10
2018-05-11T18:29:01.907Z,7.10
2018-05-11T18:31:29.364Z,7.07
2018-05-11T18:33:56.780Z,7.47
2018-05-11T18:36:24.242Z,5.87
2018-05-11T18:38:52.117Z,15.47
2018-05-11T18:41:19.536Z,8.67
2018-05-11T18:43:46.953Z,9.70
2018-05-11T18:46:14.365Z,8.80
2018-05-11T18:48:41.803Z,8.17
2018-05-11T18:51:09.235Z,9.27
2018-05-11T18:53:37.002Z,8.03
2018-05-11T18:56:04.084Z,11.67
2018-05-11T18:58:31.510Z,9.93
2018-05-11T19:00:59.345Z,10.43
2018-05-11T19:03:26.761Z,11.13
2018-05-11T19:05:54.183Z,11.33
2018-05-11T19:08:21.595Z,12.03
2018-05-11T19:10:49.000Z,9.30
2018-05-11T19:13:16.760Z,10.93
2018-05-11T19:15:44.160Z,9.73
2018-05-11T19:18:11.580Z,9.90
2018-05-11T19:20:39.352Z,11.00
2018-05-11T19:23:06.834Z,8.93
2018-05-11T19:25:34.260Z,12.03
2018-05-11T19:28:01.684Z,10.67
2018-05-11T19:30:29.115Z,11.27
2018-05-11T19:32:56.536Z,12.30
2018-05-11T19:35:23.957Z,9.50
2018-05-11T19:37:51.373Z,13.33
2018-05-11T19:40:18.808Z,11.10
2018-05-11T19:42:46.265Z,9.37
2018-05-11T19:45:14.016Z,9.67
2018-05-11T19:47:41.424Z,10.60
2018-05-11T19:50:08.827Z,9.23
2018-05-11T19:52:36.242Z,8.93
2018-05-11T19:55:03.744Z,11.33
2018-05-11T19:57:31.180Z,10.03
2018-05-11T19:59:58.595Z,9.53
2018-05-11T20:02:26.003Z,10.03
2018-05-11T20:04:53.425Z,10.73
2018-05-11T20:07:21.834Z,13.27
2018-05-11T20:09:49.437Z,10.10
2018-05-11T20:12:16.835Z,9.83
2018-05-11T20:14:44.247Z,12.50
2018-05-11T20:17:11.980Z,9.70
2018-05-11T20:19:39.383Z,10.57
2018-05-11T20:22:06.922Z,10.67
2018-05-11T20:24:34.480Z,11.37
2018-05-11T20:27:01.883Z,11.57
2018-05-11T20:29:29.288Z,9.87
2018-05-11T20:31:56.708Z,11.50
2018-05-11T20:34:24.144Z,12.33
2018-05-11T20:36:51.548Z,11.07
2018-05-11T20:39:18.977Z,10.37
2018-05-11T20:41:46.385Z,11.40
2018-05-11T20:44:13.796Z,9.50
2018-05-11T20:46:41.217Z,10.13
2018-05-11T20:49:08.617Z,13.00
2018-05-11T20:51:36.036Z,11.47
2018-05-11T20:54:03.470Z,13.13
2018-05-11T20:56:30.870Z,11.30
2018-05-11T20:58:58.444Z,10.23
2018-05-11T21:01:25.848Z,10.17
2018-05-11T21:03:53.243Z,9.73
2018-05-11T21:06:20.677Z,11.73
2018-05-11T21:08:48.228Z,9.93
2018-05-11T21:11:15.653Z,10.47
2018-05-11T21:13:43.060Z,15.87
2018-05-11T21:16:10.464Z,14.00
2018-05-11T21:18:38.355Z,12.77
2018-05-11T21:21:05.803Z,11.90
2018-05-11T21:23:33.225Z,12.87
2018-05-11T21:26:01.033Z,11.73
2018-05-11T21:28:28.485Z,13.80
2018-05-11T21:30:55.901Z,13.87
2018-05-11T21:33:23.405Z,13.27
2018-05-11T21:35:50.748Z,11.90
2018-05-11T21:38:18.186Z,16.03
2018-05-11T21:40:45.662Z,15.37
2018-05-11T21:43:14.180Z,13.80
2018-05-11T21:45:41.628Z,14.43
2018-05-11T21:48:09.050Z,15.23
2018-05-11T21:50:36.663Z,16.63
2018-05-11T21:53:04.227Z,14.13
2018-05-11T21:55:31.856Z,14.97
2018-05-11T21:57:59.283Z,16.17
2018-05-11T22:00:26.728Z,13.93
2018-05-11T22:02:54.187Z,16.90
2018-05-11T22:05:21.595Z,15.03
2018-05-11T22:07:49.458Z,15.77
2018-05-11T22:10:16.893Z,14.97
2018-05-11T22:12:44.305Z,15.67
2018-05-11T22:15:11.746Z,14.13
2018-05-11T22:17:39.175Z,14.33
2018-05-11T22:20:06.584Z,15.07
2018-05-11T22:22:34.022Z,14.67
2018-05-11T22:25:01.447Z,14.73
2018-05-11T22:27:29.180Z,18.03
2018-05-11T22:29:56.588Z,17.43
2018-05-11T22:32:25.723Z,17.03
2018-05-11T22:34:53.189Z,17.07
2018-05-11T22:37:20.594Z,15.80
2018-05-11T22:39:51.309Z,15.50
2018-05-11T22:42:20.241Z,17.57
2018-05-11T22:44:47.797Z,17.10
2018-05-11T22:47:15.477Z,16.83
2018-05-11T22:49:42.891Z,15.17
2018-05-11T22:52:10.308Z,15.83
2018-05-11T22:54:37.744Z,16.80
2018-05-11T22:57:05.163Z,15.77
2018-05-11T22:59:32.596Z,15.73
2018-05-11T23:02:00.017Z,15.37
2018-05-11T23:04:27.448Z,16.43
2018-05-11T23:06:54.865Z,16.03
2018-05-11T23:09:22.520Z,15.57
2018-05-11T23:11:50.281Z,16.17
2018-05-11T23:14:17.760Z,16.87
2018-05-11T23:16:45.204Z,16.00
2018-05-11T23:19:12.942Z,16.03
2018-05-11T23:21:40.361Z,15.83
2018-05-11T23:24:07.767Z,16.43
2018-05-11T23:26:35.224Z,16.97
2018-05-11T23:29:02.651Z,18.73
2018-05-11T23:31:30.097Z,17.43
2018-05-11T23:33:57.504Z,18.50
2018-05-11T23:36:25.101Z,17.00
2018-05-11T23:38:52.522Z,16.70
2018-05-11T23:41:19.950Z,17.80
2018-05-11T23:43:47.523Z,17.47
2018-05-11T23:46:14.952Z,17.83
2018-05-11T23:48:42.379Z,17.17
2018-05-11T23:51:09.809Z,14.63
2018-05-11T23:53:37.240Z,17.93
2018-05-11T23:56:04.674Z,16.00
2018-05-11T23:58:32.109Z,16.43
